Time;durP1;ratioP1;P1;durP2;ratioP2;P2;SDS_P1;SDS_P2;PMS_P1;PMS_P2;Temp;Humidity;BMP_temperature;BMP_pressure;BME280_temperature;BME280_humidity;BME280_pressure;Samples;Min_cycle;Max_cycle;Signal;HPM_P1;HPM_P2
2022/01/17 00:02:04;;;;;;;35.30;22.55;;;3.00;78.80;;;1.21;84.84;97247.84;4930120;29;20841;-64
2022/01/17 00:04:29;;;;;;;36.97;22.27;;;3.10;78.50;;;1.19;84.95;97254.88;4911600;29;20055;-65
2022/01/17 00:06:55;;;;;;;32.35;21.08;;;3.00;78.80;;;1.18;85.25;97262.75;4930843;29;20134;-65
2022/01/17 00:09:22;;;;;;;30.20;19.30;;;2.90;78.80;;;1.17;84.85;97261.09;4930607;29;20035;-65
2022/01/17 00:11:50;;;;;;;35.30;20.48;;;2.90;78.90;;;1.17;84.64;97254.16;4915023;29;20036;-64
2022/01/17 00:14:18;;;;;;;31.42;19.63;;;2.90;78.90;;;1.17;85.15;97246.38;4911085;29;20036;-64
2022/01/17 00:16:51;;;;;;;29.58;19.13;;;3.00;78.80;;;1.19;84.56;97254.88;4901834;29;20519;-64
2022/01/17 00:21:49;;;;;;;31.38;21.05;;;3.00;78.60;;;1.19;84.66;97243.69;4945073;28;20031;-64
2022/01/17 00:24:16;;;;;;;30.65;19.40;;;3.00;78.80;;;1.19;84.70;97249.69;4914726;29;20131;-64
2022/01/17 00:26:41;;;;;;;32.42;20.40;;;3.00;78.80;;;1.18;85.38;97258.41;4928246;29;20032;-65
2022/01/17 00:29:07;;;;;;;35.03;21.13;;;2.90;79.50;;;1.15;85.39;97248.25;4899516;29;20047;-64
2022/01/17 00:31:33;;;;;;;32.60;20.77;;;2.90;80.00;;;1.13;85.99;97244.06;4924149;29;20036;-65
2022/01/17 00:33:59;;;;;;;31.30;19.92;;;2.90;80.20;;;1.14;85.32;97240.59;4948511;28;20088;-64
2022/01/17 00:36:24;;;;;;;32.08;20.70;;;2.90;80.00;;;1.15;85.82;97247.44;4922449;29;20079;-65
2022/01/17 00:38:50;;;;;;;35.80;21.10;;;2.90;79.90;;;1.14;85.52;97238.00;4917721;29;20051;-65
2022/01/17 00:41:16;;;;;;;35.25;21.65;;;2.90;80.10;;;1.10;85.97;97234.75;4934350;29;20028;-65
2022/01/17 00:43:41;;;;;;;34.22;20.88;;;2.80;80.20;;;1.11;85.84;97235.56;4925612;29;20563;-65
2022/01/17 00:46:09;;;;;;;33.78;20.27;;;2.90;80.00;;;1.09;86.55;97233.09;4893286;29;20154;-64
2022/01/17 00:48:34;;;;;;;32.95;20.83;;;2.90;79.90;;;1.10;86.27;97239.09;4909617;29;20039;-65
2022/01/17 00:51:00;;;;;;;30.95;19.95;;;2.90;79.90;;;1.10;86.74;97236.50;4926363;29;20410;-64
2022/01/17 00:53:26;;;;;;;31.15;20.30;;;2.80;80.00;;;1.11;86.10;97241.59;4914968;29;20049;-64
2022/01/17 00:55:51;;;;;;;31.73;19.73;;;2.90;79.60;;;1.11;86.00;97239.00;4922287;29;20028;-63
2022/01/17 00:58:17;;;;;;;31.48;20.58;;;2.90;79.80;;;1.11;86.44;97240.75;4919824;29;20127;-63
2022/01/17 01:00:44;;;;;;;33.60;19.52;;;2.90;79.60;;;1.12;85.81;97242.41;4916501;29;20079;-63
2022/01/17 01:03:10;;;;;;;30.70;19.70;;;2.80;80.00;;;1.11;85.81;97246.78;4915771;29;20040;-63
2022/01/17 01:05:36;;;;;;;31.58;20.40;;;2.80;79.90;;;1.12;86.10;97242.41;4928054;29;20036;-65
2022/01/17 01:08:02;;;;;;;31.70;19.70;;;2.80;79.90;;;1.09;86.35;97248.63;4940758;29;20420;-63
2022/01/17 01:10:28;;;;;;;30.27;19.98;;;2.80;80.30;;;1.11;86.17;97248.53;4921658;29;20044;-64
2022/01/17 01:12:53;;;;;;;31.67;20.52;;;2.80;80.00;;;1.10;86.08;97239.09;4922490;29;20067;-63
2022/01/17 01:18:36;;;;;;;31.15;18.88;;;2.80;79.90;;;1.10;86.12;97239.94;4898355;29;20136;-64
2022/01/17 01:29:13;;;;;;;30.60;18.30;;;2.80;79.10;;;1.10;85.47;97219.19;4912199;29;20530;-63
2022/01/17 01:31:49;;;;;;;33.33;19.40;;;2.90;78.50;;;1.11;85.13;97226.03;4932183;29;20063;-63
2022/01/17 01:34:17;;;;;;;27.92;18.15;;;2.90;78.10;;;1.14;85.24;97214.66;4930887;29;20028;-63
2022/01/17 01:36:43;;;;;;;28.77;18.08;;;2.90;78.00;;;1.15;85.27;97226.69;4901551;29;20594;-64
2022/01/17 01:39:09;;;;;;;29.92;18.67;;;2.90;77.90;;;1.15;84.88;97226.69;4916591;29;20210;-63
2022/01/17 01:41:42;;;;;;;28.45;18.35;;;3.00;78.00;;;1.17;84.86;97235.19;4915489;29;20067;-64
2022/01/17 01:44:19;;;;;;;31.40;17.95;;;3.00;77.80;;;1.16;84.91;97234.38;4898947;29;20399;-63
2022/01/17 01:46:45;;;;;;;28.67;18.23;;;2.90;77.90;;;1.16;84.47;97234.38;4946280;28;20032;-63
2022/01/17 01:49:12;;;;;;;29.50;17.90;;;2.90;77.80;;;1.18;84.55;97239.44;4932333;29;20103;-63
2022/01/17 01:51:37;;;;;;;28.95;17.33;;;2.90;77.80;;;1.18;84.95;97244.63;4909531;29;20043;-63
2022/01/17 01:54:03;;;;;;;28.48;17.42;;;2.90;77.50;;;1.16;84.36;97236.94;4916673;29;20110;-63
2022/01/17 01:56:29;;;;;;;28.42;17.33;;;2.90;77.60;;;1.17;84.66;97233.44;4920719;29;20050;-63
2022/01/17 01:58:55;;;;;;;27.20;17.23;;;3.00;77.30;;;1.20;83.95;97241.00;4911154;29;20032;-64
2022/01/17 02:01:21;;;;;;;26.90;17.98;;;3.10;77.30;;;1.22;84.49;97236.53;4912242;29;20028;-63
2022/01/17 02:03:46;;;;;;;24.95;16.77;;;3.10;76.80;;;1.25;83.70;97232.06;4913264;29;20051;-63
2022/01/17 02:06:12;;;;;;;28.65;18.00;;;3.10;76.70;;;1.22;83.99;97218.41;4912844;29;20129;-63
2022/01/17 02:08:38;;;;;;;26.70;17.15;;;3.00;77.00;;;1.24;83.72;97226.06;4933117;29;20063;-63
2022/01/17 02:11:03;;;;;;;26.73;16.52;;;3.10;77.00;;;1.25;83.74;97221.72;4946676;28;20059;-63
2022/01/17 02:13:29;;;;;;;30.05;18.05;;;3.10;76.60;;;1.21;83.59;97210.72;4948551;28;20369;-64
2022/01/17 02:16:05;;;;;;;25.58;16.23;;;2.90;76.90;;;1.25;84.57;97216.53;4917262;29;20047;-64
2022/01/17 02:18:31;;;;;;;26.80;16.95;;;3.10;76.80;;;1.26;83.95;97224.19;4927959;29;20099;-63
2022/01/17 02:21:18;;;;;;;23.27;15.48;;;3.10;76.50;;;1.26;84.17;97223.38;4921100;29;20028;-64
2022/01/17 02:23:51;;;;;;;26.83;16.35;;;3.10;76.50;;;1.27;83.42;97222.44;4931964;29;20060;-63
2022/01/17 02:26:17;;;;;;;24.75;15.77;;;3.10;76.70;;;1.29;82.97;97233.53;4915484;29;20044;-63
2022/01/17 02:28:47;;;;;;;24.38;15.77;;;3.10;76.20;;;1.30;83.11;97240.34;4930573;29;20420;-63
2022/01/17 02:31:13;;;;;;;28.17;16.03;;;3.10;76.20;;;1.29;83.10;97229.16;4909704;29;20035;-63
2022/01/17 02:33:39;;;;;;;23.88;15.38;;;3.10;76.30;;;1.30;83.52;97224.81;4915804;29;20385;-64
2022/01/17 02:36:05;;;;;;;26.02;15.25;;;3.10;76.10;;;1.31;83.37;97229.06;4912547;29;20040;-63
2022/01/17 02:38:31;;;;;;;25.02;14.95;;;3.10;76.00;;;1.31;83.04;97231.66;4907973;29;20111;-64
2022/01/17 02:40:56;;;;;;;24.23;15.40;;;3.10;76.10;;;1.31;83.36;97226.47;4912361;29;20031;-63
2022/01/17 02:43:24;;;;;;;22.98;14.25;;;3.10;75.70;;;1.31;83.17;97223.88;4912937;29;20059;-63
2022/01/17 02:48:22;;;;;;;20.52;13.02;;;3.10;75.60;;;1.33;83.05;97214.22;4916616;29;20062;-63
2022/01/17 02:50:48;;;;;;;22.30;13.02;;;3.20;75.40;;;1.35;82.92;97207.16;4912548;29;20059;-63
2022/01/17 02:53:14;;;;;;;20.90;13.05;;;3.20;75.20;;;1.34;83.20;97205.50;4881743;29;20036;-64
2022/01/17 02:55:50;;;;;;;21.75;12.93;;;3.20;74.80;;;1.36;81.94;97193.28;4910088;28;20115;-62
2022/01/17 02:58:17;;;;;;;19.55;12.35;;;3.20;74.70;;;1.32;81.98;97184.06;4916175;29;20110;-63
2022/01/17 03:00:43;;;;;;;18.25;11.35;;;3.10;74.40;;;1.31;81.87;97190.19;4925689;29;20535;-63
2022/01/17 03:03:16;;;;;;;18.88;11.60;;;3.10;74.40;;;1.30;81.52;97183.34;4913136;29;20027;-63
2022/01/17 03:05:42;;;;;;;20.25;11.93;;;3.10;74.30;;;1.29;81.42;97181.69;4906155;29;20032;-63
2022/01/17 03:08:08;;;;;;;19.23;11.60;;;3.00;74.50;;;1.28;81.89;97186.03;4912827;29;20032;-63
2022/01/17 03:10:40;;;;;;;22.42;13.75;;;3.00;74.60;;;1.26;81.39;97189.66;4913556;29;20036;-63
2022/01/17 03:13:15;;;;;;;21.33;12.73;;;3.00;74.70;;;1.26;81.70;97187.06;4897468;29;20119;-63
2022/01/17 03:15:41;;;;;;;30.92;18.80;;;3.00;74.80;;;1.27;81.55;97199.94;4911991;29;20559;-63
2022/01/17 03:18:07;;;;;;;17.70;11.70;;;3.10;75.30;;;1.29;81.76;97202.41;4912787;29;20451;-64
2022/01/17 03:20:37;;;;;;;22.20;13.50;;;3.10;74.90;;;1.31;81.59;97200.53;4912431;29;20044;-63
2022/01/17 03:23:03;;;;;;;17.45;11.45;;;3.10;74.50;;;1.32;81.41;97207.38;4898614;29;20055;-65
2022/01/17 03:25:29;;;;;;;18.48;10.50;;;3.10;74.20;;;1.35;81.18;97207.16;4909400;29;20036;-65
2022/01/17 03:27:54;;;;;;;16.33;9.98;;;3.10;73.90;;;1.35;80.83;97207.16;4914043;29;20059;-63
2022/01/17 03:30:22;;;;;;;17.08;10.45;;;3.20;73.50;;;1.35;81.44;97208.00;4914368;29;20087;-63
2022/01/17 03:32:48;;;;;;;16.42;9.98;;;3.10;73.60;;;1.36;81.23;97214.00;4920392;29;20051;-63
2022/01/17 03:35:14;;;;;;;19.38;12.23;;;3.10;73.80;;;1.37;80.90;97221.72;4898995;29;20439;-64
2022/01/17 03:37:40;;;;;;;22.65;13.27;;;3.20;73.90;;;1.38;81.17;97227.72;4911510;28;20483;-63
2022/01/17 03:40:06;;;;;;;17.73;11.45;;;3.20;74.00;;;1.40;81.01;97236.22;4886729;29;20056;-63
2022/01/17 03:42:32;;;;;;;17.50;11.18;;;3.20;74.00;;;1.40;80.95;97221.50;4881226;29;20028;-65
2022/01/17 03:44:58;;;;;;;18.30;11.48;;;3.20;73.60;;;1.40;80.92;97223.25;4899102;29;20055;-65
2022/01/17 03:47:24;;;;;;;17.95;10.95;;;3.10;73.60;;;1.41;81.12;97232.69;4915765;29;20051;-64
2022/01/17 03:49:50;;;;;;;15.43;9.98;;;3.20;73.90;;;1.39;80.48;97212.06;4932894;28;20028;-65
2022/01/17 03:52:16;;;;;;;16.83;10.23;;;3.20;73.80;;;1.39;80.91;97201.69;4902276;29;20036;-65
2022/01/17 03:54:41;;;;;;;16.52;10.23;;;3.10;73.40;;;1.40;80.36;97199.94;4915956;29;20043;-65
2022/01/17 03:57:07;;;;;;;18.02;9.68;;;3.10;73.00;;;1.40;80.52;97192.16;4916092;29;20031;-65
2022/01/17 03:59:33;;;;;;;17.48;9.73;;;3.20;72.90;;;1.40;80.30;97199.94;4931625;29;20113;-65
2022/01/17 04:01:58;;;;;;;20.17;11.50;;;3.20;73.10;;;1.41;80.61;97196.41;4937925;28;20176;-65
2022/01/17 04:04:24;;;;;;;26.17;15.38;;;3.10;72.80;;;1.41;80.18;97188.63;4918900;29;20083;-65
2022/01/17 04:06:50;;;;;;;27.33;16.63;;;3.10;72.80;;;1.43;80.54;97194.53;4933783;29;20051;-65
2022/01/17 04:09:16;;;;;;;16.50;10.00;;;3.20;73.00;;;1.43;80.28;97189.34;4947306;28;20036;-64
2022/01/17 04:11:42;;;;;;;16.60;10.10;;;3.20;72.50;;;1.42;79.41;97204.06;4914266;29;20040;-65
2022/01/17 04:14:10;;;;;;;18.83;10.48;;;3.10;72.90;;;1.42;79.62;97213.63;4914565;29;20464;-65
2022/01/17 04:16:35;;;;;;;16.55;9.45;;;3.10;72.90;;;1.42;79.53;97213.63;4937957;29;20119;-65
2022/01/17 04:19:01;;;;;;;24.55;13.20;;;3.20;72.90;;;1.42;80.50;97217.03;4931752;29;20044;-65
2022/01/17 04:21:32;;;;;;;19.92;11.63;;;3.20;73.40;;;1.44;79.87;97222.13;4933914;29;20036;-65
2022/01/17 04:23:58;;;;;;;17.52;10.95;;;3.10;72.90;;;1.42;79.86;97218.81;4932622;28;20040;-64
2022/01/17 04:26:23;;;;;;;16.83;10.63;;;3.20;72.90;;;1.43;80.19;97217.88;4914469;29;20508;-65
2022/01/17 04:28:49;;;;;;;16.27;9.85;;;3.20;72.70;;;1.42;79.71;97219.63;4911741;29;20697;-67
2022/01/17 04:31:15;;;;;;;16.52;10.27;;;3.10;72.70;;;1.42;79.98;97204.06;4899740;29;20036;-67
2022/01/17 04:33:41;;;;;;;17.73;10.00;;;3.20;72.60;;;1.42;79.42;97198.88;4919393;28;20202;-69
2022/01/17 04:36:08;;;;;;;17.10;10.00;;;3.20;72.30;;;1.41;79.24;97215.38;4901238;29;20087;-66
2022/01/17 04:38:34;;;;;;;15.38;9.80;;;3.20;72.40;;;1.40;79.34;97226.69;4896321;29;20506;-66
2022/01/17 04:41:03;;;;;;;17.60;9.70;;;3.10;72.50;;;1.40;79.64;97229.28;4913908;29;20119;-66
2022/01/17 04:43:45;;;;;;;15.00;9.98;;;3.20;72.80;;;1.40;79.73;97231.03;4933095;29;20036;-65
2022/01/17 04:46:11;;;;;;;19.35;10.27;;;3.10;72.70;;;1.42;79.09;97229.16;4915863;29;20030;-65
2022/01/17 04:48:37;;;;;;;16.75;10.68;;;3.20;72.80;;;1.41;79.80;97243.06;4925765;29;20039;-65
2022/01/17 04:51:04;;;;;;;16.50;9.93;;;3.20;73.00;;;1.39;79.59;97242.34;4901249;29;20050;-65
2022/01/17 04:53:30;;;;;;;18.42;10.32;;;3.10;73.00;;;1.37;79.85;97237.28;4901010;29;20039;-64
2022/01/17 04:55:56;;;;;;;16.10;9.90;;;3.10;73.30;;;1.37;79.98;97232.09;4900049;28;20218;-66
2022/01/17 04:58:22;;;;;;;18.30;10.48;;;3.10;73.30;;;1.39;80.12;97219.03;4899851;29;20511;-65
2022/01/17 05:00:48;;;;;;;15.25;9.68;;;3.10;73.30;;;1.39;80.03;97224.19;4928400;29;20032;-66
2022/01/17 05:03:22;;;;;;;17.17;10.20;;;3.10;73.30;;;1.37;79.88;97200.97;4897584;29;20417;-65
2022/01/17 05:05:48;;;;;;;15.10;9.88;;;3.10;73.40;;;1.38;80.15;97217.34;4912859;29;20056;-65
2022/01/17 05:08:14;;;;;;;14.65;9.93;;;3.10;73.60;;;1.38;80.34;97213.00;4915689;29;20032;-65
2022/01/17 05:10:42;;;;;;;19.60;11.13;;;3.20;73.60;;;1.38;79.91;97225.13;4931643;29;20040;-66
2022/01/17 05:13:10;;;;;;;15.68;10.18;;;3.20;73.70;;;1.38;80.12;97218.19;4901509;29;20523;-65
2022/01/17 05:15:43;;;;;;;19.52;10.68;;;3.20;74.00;;;1.39;80.23;97209.47;4921362;29;20031;-66
2022/01/17 05:19:48;;;;;;;16.30;10.13;;;3.20;74.20;;;1.37;80.42;97211.34;4917151;29;20455;-66
2022/01/17 05:21:09;;;;;;;17.73;10.27;;;3.10;74.40;;;1.39;80.92;97229.38;4943154;28;20046;-65
2022/01/17 05:23:35;;;;;;;16.92;10.23;;;3.10;74.30;;;1.36;80.34;97225.25;4932339;28;20040;-65
2022/01/17 05:26:01;;;;;;;16.60;10.43;;;3.10;74.70;;;1.34;80.63;97218.47;4912115;29;20487;-65
2022/01/17 05:28:27;;;;;;;15.60;9.57;;;2.90;75.00;;;1.33;80.43;97204.69;4914243;29;20123;-65
2022/01/17 05:30:52;;;;;;;15.45;9.90;;;3.00;75.20;;;1.33;80.96;97209.03;4900536;29;20040;-65
2022/01/17 05:33:18;;;;;;;16.05;9.63;;;3.00;75.40;;;1.33;80.50;97201.25;4916064;29;20440;-65
2022/01/17 05:35:44;;;;;;;15.43;10.05;;;3.10;75.30;;;1.35;80.97;97196.81;4915073;29;20051;-65
2022/01/17 05:38:10;;;;;;;16.15;10.68;;;3.10;75.00;;;1.35;81.02;97212.34;4931208;29;20036;-65
2022/01/17 05:40:35;;;;;;;16.48;10.32;;;3.10;75.40;;;1.34;81.44;97221.91;4908767;29;20492;-66
2022/01/17 05:43:01;;;;;;;16.52;9.98;;;3.10;75.60;;;1.32;81.42;97218.59;4914667;29;20044;-68
2022/01/17 05:45:27;;;;;;;16.48;10.30;;;3.10;75.40;;;1.34;81.39;97216.72;4907352;29;20051;-67
2022/01/17 05:47:52;;;;;;;14.95;10.00;;;3.10;75.50;;;1.35;81.54;97227.91;4922135;29;20055;-68
2022/01/17 05:50:18;;;;;;;17.30;10.52;;;3.10;75.80;;;1.36;81.28;97229.56;4910919;29;20032;-67
2022/01/17 05:52:44;;;;;;;15.80;10.63;;;3.10;75.60;;;1.37;81.54;97232.09;4897060;29;20036;-67
2022/01/17 05:55:11;;;;;;;15.45;10.32;;;3.10;75.70;;;1.36;82.29;97240.81;4896994;29;20042;-66
2022/01/17 05:57:37;;;;;;;18.45;10.10;;;3.00;76.00;;;1.36;81.54;97245.13;4912260;29;20498;-72
2022/01/17 06:00:05;;;;;;;18.15;10.18;;;3.10;76.40;;;1.36;82.07;97245.97;4928822;29;20047;-67
2022/01/17 06:02:31;;;;;;;16.40;10.05;;;3.10;76.00;;;1.38;82.01;97261.44;4911979;29;20126;-66
2022/01/17 06:04:57;;;;;;;16.70;9.75;;;3.10;76.20;;;1.38;81.76;97253.66;4922829;29;20047;-65
2022/01/17 06:07:23;;;;;;;16.00;10.45;;;3.10;76.00;;;1.40;81.65;97256.97;4930120;29;20111;-64
2022/01/17 06:09:48;;;;;;;15.95;11.07;;;3.10;76.00;;;1.42;82.51;97249.91;4928409;29;20118;-64
2022/01/17 06:12:14;;;;;;;17.65;11.23;;;3.30;75.90;;;1.44;82.35;97246.28;4889098;29;20241;-64
2022/01/17 06:14:40;;;;;;;16.15;10.40;;;3.10;75.80;;;1.44;82.52;97253.22;4918348;29;20036;-64
2022/01/17 06:17:06;;;;;;;16.73;10.18;;;3.10;76.10;;;1.43;82.07;97246.38;4925556;29;20036;-65
2022/01/17 06:19:31;;;;;;;16.30;9.40;;;3.10;75.80;;;1.43;82.46;97236.03;4913583;29;20513;-64
2022/01/17 06:21:57;;;;;;;15.90;9.93;;;3.20;75.90;;;1.45;82.03;97228.97;4915071;29;20719;-65
2022/01/17 06:24:23;;;;;;;15.05;9.52;;;3.20;75.80;;;1.46;82.66;97225.44;4930665;29;20040;-64
2022/01/17 06:26:49;;;;;;;15.95;9.75;;;3.20;75.70;;;1.45;81.95;97228.97;4914024;29;20130;-65
2022/01/17 06:29:15;;;;;;;19.40;10.77;;;3.10;76.10;;;1.44;82.22;97220.34;4914847;29;20038;-65
2022/01/17 06:31:41;;;;;;;15.35;9.45;;;3.20;76.20;;;1.45;82.16;97223.78;4902086;29;20036;-66
2022/01/17 06:34:15;;;;;;;13.88;8.80;;;3.20;75.90;;;1.47;81.96;97214.13;5073640;27;20422;-62
2022/01/17 06:36:42;;;;;;;15.57;9.57;;;3.30;76.00;;;1.48;82.79;97208.00;5028673;28;20099;-61
2022/01/17 06:39:09;;;;;;;14.48;9.35;;;3.30;76.00;;;1.47;82.48;97214.94;5021041;28;20041;-62
2022/01/17 06:41:35;;;;;;;13.32;8.80;;;3.20;76.50;;;1.48;82.29;97208.00;5004939;28;20113;-62
2022/01/17 06:44:00;;;;;;;13.68;9.13;;;3.20;76.40;;;1.50;82.71;97226.88;5004008;28;20723;-63
2022/01/17 06:46:26;;;;;;;13.30;9.10;;;3.20;76.40;;;1.50;82.65;97227.72;5021009;28;20061;-62
2022/01/17 06:48:52;;;;;;;14.75;9.30;;;3.30;76.40;;;1.51;82.64;97225.94;4982903;28;20076;-62
2022/01/17 06:51:18;;;;;;;15.38;9.15;;;3.30;76.50;;;1.54;83.40;97225.72;4991170;28;20037;-62
2022/01/17 06:53:44;;;;;;;15.30;9.55;;;3.30;76.60;;;1.56;82.90;97221.25;5036064;28;20493;-61
2022/01/17 06:56:09;;;;;;;16.02;9.32;;;3.30;76.50;;;1.57;83.24;97212.53;5008529;28;20030;-64
2022/01/17 06:58:36;;;;;;;13.82;9.18;;;3.40;76.60;;;1.56;83.21;97231.63;5007786;28;20026;-64
2022/01/17 07:01:03;;;;;;;13.85;9.13;;;3.30;76.60;;;1.58;83.21;97263.47;5017438;28;20030;-65
2022/01/17 07:03:29;;;;;;;14.63;9.48;;;3.40;76.50;;;1.60;82.81;97261.63;4989212;28;20084;-62
2022/01/17 07:05:55;;;;;;;14.02;9.30;;;3.40;76.60;;;1.61;82.64;97255.50;5005583;28;20042;-63
2022/01/17 07:08:21;;;;;;;15.55;9.45;;;3.30;76.50;;;1.63;83.56;97240.66;5023976;28;20129;-62
2022/01/17 07:10:46;;;;;;;17.05;9.60;;;3.40;76.50;;;1.63;82.83;97253.63;5002868;28;20033;-63
2022/01/17 07:13:12;;;;;;;14.68;9.23;;;3.40;76.60;;;1.65;83.03;97271.69;5007861;28;20038;-63
2022/01/17 07:15:38;;;;;;;15.10;9.55;;;3.50;76.40;;;1.65;83.12;97275.09;5035941;28;20421;-62
2022/01/17 07:18:04;;;;;;;16.08;10.10;;;3.50;76.30;;;1.68;83.24;97287.03;5005816;28;20092;-62
2022/01/17 07:20:29;;;;;;;15.27;9.60;;;3.50;76.10;;;1.68;83.06;97311.19;4994514;28;20061;-67
2022/01/17 07:22:55;;;;;;;17.00;10.27;;;3.50;75.80;;;1.68;83.27;97331.94;5023326;28;20037;-63
2022/01/17 07:25:21;;;;;;;14.60;9.88;;;3.40;75.90;;;1.70;82.75;97343.06;5021557;28;20721;-63
2022/01/17 07:27:47;;;;;;;15.02;10.18;;;3.50;75.80;;;1.71;82.66;97365.47;5016858;28;20038;-64
2022/01/17 07:30:13;;;;;;;16.15;9.82;;;3.50;76.00;;;1.75;82.42;97373.88;5017232;28;20412;-64
2022/01/17 07:32:38;;;;;;;15.73;10.27;;;3.50;75.80;;;1.76;82.53;97367.75;5006504;28;20038;-65
2022/01/17 07:35:05;;;;;;;16.75;11.48;;;3.60;75.50;;;1.78;83.25;97366.69;5005338;28;20029;-65
2022/01/17 07:37:31;;;;;;;16.30;10.13;;;3.60;75.80;;;1.82;82.58;97356.97;5019823;28;20126;-65
2022/01/17 07:39:57;;;;;;;15.25;9.98;;;3.60;75.50;;;1.86;82.64;97352.41;5019419;28;20137;-60
2022/01/17 07:42:23;;;;;;;16.70;10.38;;;3.70;75.10;;;1.88;82.91;97329.78;5019187;28;20401;-62
2022/01/17 07:44:54;;;;;;;17.17;10.45;;;3.70;74.80;;;1.87;82.57;97328.13;4976686;28;20125;-62
2022/01/17 07:47:38;;;;;;;15.85;9.98;;;3.70;75.10;;;1.86;82.59;97332.47;4994282;28;20133;-62
2022/01/17 07:50:06;;;;;;;15.55;9.40;;;3.60;75.00;;;1.88;82.52;97332.38;5004274;28;20034;-64
2022/01/17 07:52:31;;;;;;;16.13;9.75;;;3.70;75.00;;;1.88;82.35;97315.03;5006860;28;20042;-62
2022/01/17 07:54:57;;;;;;;14.43;9.45;;;3.60;75.10;;;1.89;82.55;97305.50;4981583;28;20136;-62
2022/01/17 07:57:23;;;;;;;16.02;9.23;;;3.70;75.10;;;1.90;82.47;97313.16;4986011;28;20022;-62
2022/01/17 07:59:49;;;;;;;12.63;8.63;;;3.70;75.00;;;1.90;82.66;97310.56;5010118;28;20034;-62
2022/01/17 08:02:14;;;;;;;17.05;10.02;;;3.70;75.30;;;1.90;82.53;97320.13;4980223;28;20378;-62
2022/01/17 08:04:40;;;;;;;15.55;9.32;;;3.70;75.40;;;1.92;82.58;97318.25;5012230;28;20064;-63
2022/01/17 08:07:07;;;;;;;15.15;9.45;;;3.80;75.40;;;1.94;82.67;97322.38;5001585;28;20054;-62
2022/01/17 08:09:33;;;;;;;14.95;9.55;;;3.80;75.40;;;1.96;82.41;97319.69;5009911;28;20421;-63
2022/01/17 08:12:00;;;;;;;15.35;9.85;;;3.70;75.70;;;1.98;83.18;97320.41;4975643;28;20057;-65
2022/01/17 08:14:26;;;;;;;15.23;9.68;;;3.80;75.80;;;2.01;82.93;97315.00;5010072;28;20030;-63
2022/01/17 08:16:52;;;;;;;14.00;9.45;;;3.80;76.00;;;2.01;82.81;97320.19;4992220;28;20620;-64
2022/01/17 08:19:18;;;;;;;13.43;8.73;;;3.80;76.00;;;2.02;83.38;97327.88;4989114;28;20022;-64
2022/01/17 08:21:46;;;;;;;14.18;9.60;;;3.80;76.10;;;2.06;83.22;97325.91;4968184;28;20197;-66
2022/01/17 08:24:12;;;;;;;15.88;9.68;;;3.90;76.30;;;2.10;83.53;97335.16;4989106;28;20465;-63
2022/01/17 08:26:42;;;;;;;14.13;8.68;;;3.90;76.20;;;2.11;83.43;97340.22;4976338;28;20088;-64
2022/01/17 08:29:11;;;;;;;13.70;8.77;;;4.00;76.30;;;2.14;83.48;97345.19;4993615;28;20128;-63
2022/01/17 08:31:36;;;;;;;14.90;9.82;;;4.00;76.30;;;2.19;83.92;97354.44;4980587;28;20026;-63
2022/01/17 08:34:02;;;;;;;13.88;9.52;;;4.10;76.40;;;2.22;83.23;97359.41;5010683;28;20587;-63
2022/01/17 08:36:28;;;;;;;15.40;9.68;;;4.00;76.70;;;2.21;83.49;97343.00;5011927;28;20030;-64
2022/01/17 08:38:54;;;;;;;15.82;9.38;;;4.00;76.70;;;2.22;83.77;97308.31;5014791;28;20053;-64
2022/01/17 08:41:19;;;;;;;16.13;9.57;;;4.00;77.00;;;2.24;83.84;97314.22;4992162;28;20029;-62
2022/01/17 08:43:48;;;;;;;14.73;9.38;;;4.10;77.10;;;2.26;83.87;97303.72;4972033;28;20038;-64
2022/01/17 08:46:14;;;;;;;14.25;9.45;;;4.10;76.90;;;2.26;83.79;97294.19;4974586;28;20132;-63
2022/01/17 08:48:40;;;;;;;12.55;8.73;;;4.00;77.20;;;2.28;84.37;97296.69;4987382;28;20031;-64
2022/01/17 08:51:07;;;;;;;13.95;9.30;;;4.10;76.90;;;2.31;84.00;97294.72;4976531;28;20150;-61
2022/01/17 08:53:33;;;;;;;13.77;9.68;;;4.10;76.90;;;2.33;84.03;97316.19;4985461;28;20560;-61
2022/01/17 08:55:59;;;;;;;14.35;9.25;;;4.20;76.40;;;2.38;83.97;97318.47;5014153;28;20141;-60
2022/01/17 08:58:25;;;;;;;16.98;10.70;;;4.30;76.40;;;2.44;83.74;97324.03;4978781;28;20104;-63
2022/01/17 09:00:50;;;;;;;15.40;10.25;;;4.40;76.10;;;2.49;84.52;97333.28;5007577;28;20033;-64
2022/01/17 09:03:17;;;;;;;15.25;9.82;;;4.40;76.10;;;2.52;83.87;97352.09;5014364;28;20041;-63
2022/01/17 09:05:42;;;;;;;17.13;9.68;;;4.50;75.90;;;2.57;83.84;97354.34;4963682;28;20038;-63
2022/01/17 09:08:09;;;;;;;12.43;8.57;;;4.50;75.60;;;2.60;83.95;97344.56;4993814;28;20115;-63
2022/01/17 09:10:35;;;;;;;14.15;9.55;;;4.50;75.50;;;2.63;83.71;97343.53;4975235;28;20045;-65
2022/01/17 09:13:01;;;;;;;14.63;9.85;;;4.60;75.40;;;2.72;84.19;97337.69;4991975;28;20601;-64
2022/01/17 09:15:27;;;;;;;13.48;9.23;;;4.80;74.80;;;2.83;83.81;97332.53;5008768;28;20088;-65
2022/01/17 09:17:53;;;;;;;15.68;9.20;;;5.00;74.40;;;2.91;84.08;97335.41;4974373;28;20099;-63
2022/01/17 09:20:18;;;;;;;14.02;8.73;;;5.00;73.90;;;3.04;83.36;97346.56;5013552;28;20041;-64
2022/01/17 09:22:44;;;;;;;15.48;9.63;;;5.50;73.20;;;3.18;83.29;97360.34;5006375;28;20477;-64
2022/01/17 09:25:10;;;;;;;14.02;9.82;;;5.50;72.40;;;3.25;83.25;97359.78;4998837;28;20034;-64
2022/01/17 09:27:39;;;;;;;15.38;9.45;;;5.40;72.70;;;3.35;82.63;97352.13;5011637;28;20041;-64
2022/01/17 09:30:10;;;;;;;14.95;10.10;;;5.50;72.10;;;3.43;82.40;97352.41;4959628;28;20051;-64
2022/01/17 09:32:36;;;;;;;;;;;5.70;72.30;;;3.52;81.19;97349.09;4993328;28;20065;-61
2022/01/17 09:35:02;;;;;;;14.50;9.23;;;5.70;71.30;;;3.58;82.35;97373.81;4988432;28;20421;-66
2022/01/17 09:37:28;;;;;;;15.70;9.35;;;5.70;71.50;;;3.64;81.42;97383.78;4975944;28;20057;-66
2022/01/17 09:39:54;;;;;;;13.13;9.05;;;5.70;71.10;;;3.63;81.55;97377.75;5007470;28;20068;-63
2022/01/17 09:42:19;;;;;;;12.48;9.32;;;5.60;71.40;;;3.66;81.00;97394.91;4991176;28;20038;-64
2022/01/17 09:44:45;;;;;;;15.40;10.07;;;5.60;71.40;;;3.67;80.85;97373.97;5006585;28;20457;-64
2022/01/17 09:47:12;;;;;;;12.45;9.50;;;5.70;71.10;;;3.71;81.10;97373.75;4990943;28;20030;-63
2022/01/17 09:49:48;;;;;;;13.45;8.77;;;5.70;71.50;;;3.78;80.52;97399.19;4975133;28;20462;-63
2022/01/17 09:54:42;;;;;;;12.60;9.25;;;5.90;70.60;;;3.83;80.32;97375.41;5012285;28;20119;-66
2022/01/17 09:57:08;;;;;;;14.05;9.82;;;5.80;70.70;;;3.84;80.30;97388.31;4991036;28;20026;-64
2022/01/17 09:59:36;;;;;;;12.95;9.52;;;5.80;70.80;;;3.89;80.41;97380.19;5008139;28;20037;-64
2022/01/17 10:02:03;;;;;;;14.10;9.13;;;5.90;70.60;;;3.89;80.37;97370.59;4972292;28;20600;-64
2022/01/17 10:04:29;;;;;;;14.98;8.80;;;5.80;71.10;;;3.92;79.67;97369.53;4991313;28;20038;-64
2022/01/17 10:06:57;;;;;;;11.95;8.85;;;5.90;71.00;;;4.00;79.42;97367.16;4989910;28;20022;-63
2022/01/17 10:09:25;;;;;;;14.93;9.82;;;6.10;70.80;;;4.09;79.86;97369.06;5007600;28;20041;-65
2022/01/17 10:12:03;;;;;;;11.05;8.65;;;6.20;70.20;;;4.23;79.50;97365.38;4973742;28;20104;-64
2022/01/17 10:14:32;;;;;;;12.57;8.43;;;6.60;68.80;;;4.34;80.06;97351.56;4988306;28;20551;-64
2022/01/17 10:16:58;;;;;;;10.23;7.57;;;6.50;68.50;;;4.48;79.52;97353.88;4988359;28;20038;-66
2022/01/17 10:19:25;;;;;;;10.57;8.00;;;7.00;66.90;;;4.63;79.12;97354.47;5008268;28;20077;-65
2022/01/17 10:21:54;;;;;;;10.48;7.72;;;7.30;66.70;;;4.81;79.39;97329.56;4973740;28;20034;-62
2022/01/17 10:24:29;;;;;;;10.02;7.50;;;7.50;66.00;;;4.92;78.83;97313.88;4979263;28;20473;-65
2022/01/17 10:35:22;;;;;;;10.50;7.95;;;7.00;67.20;;;5.07;76.05;97303.97;4979932;28;20040;-64
2022/01/17 10:37:59;;;;;;;10.35;7.32;;;6.80;67.60;;;5.02;76.82;97306.16;5007154;28;20488;-65
2022/01/17 10:40:36;;;;;;;9.05;6.93;;;6.70;68.40;;;5.00;76.26;97318.47;4999966;28;20054;-65
2022/01/17 10:43:04;;;;;;;10.02;7.00;;;6.70;68.00;;;4.95;76.33;97325.81;4988535;28;20034;-64
2022/01/17 10:45:39;;;;;;;10.10;7.07;;;6.70;68.50;;;4.90;76.15;97340.06;4977826;28;20037;-64
2022/01/17 10:48:05;;;;;;;10.73;7.25;;;6.70;68.50;;;4.89;77.04;97338.41;4961783;28;20038;-65
2022/01/17 10:50:37;;;;;;;10.38;7.60;;;6.60;68.80;;;4.91;76.38;97340.88;4986807;28;20039;-65